Карточка аэропорта UMKK

Внимание!
Информация на этой странице в стадии наполнения.
Если вы не увидели какой-то информации, или заметили неточность - пожалуйста сообщите нам!
Спасибо!
Команда RU-STAFF
Название аэропортаХраброво
Название аэропорта (англ.)Khrabrovo
Превышение43 ft. (13.1 m.)
Координаты54°53.4', 20°35.55'
Высота перехода1000m
Эшелон переходаQFE>=742mm:FL050; QFE<742:FL060
Коды ответчика6620-6637
Зона ОрВДКалининград РПИ (UMKK)
Данные METARUMKK 271100Z 23009G16MPS 3700 -RA BKN007 OVC018 04/03 Q1003 R24/290095 NOSIG RMK QFE751/1001
Проноз погоды (TAF)UMKK 270758Z 2709/2809 23008G14MPS 6000 -RA BKN007 OVC016 TEMPO 2709/2715 21010G17MPS 3000 -SHRA BKN005 BKN013CB BECMG 2715/2717 25010G17MPS BKN011 TEMPO 2717/2724 27012G20MPS TEMPO 2800/2809 3000 -SHRA BR BKN007 BKN013CB BECMG 2802/2804 33011G22MPS
NOTAMshow/hide NOTAM
AWOS   TABLE

Информация о ВПП

ВПП Длина ВПП (м.) Покрытие Курс ВПП Частота ILS
063350Асфальтобетон60110.3
243350Асфальтобетон240109.5

Диспетчерские позиции

Позывной Наименование органа УВД Частота
UMKK_APPКалининград-Подход126.0
UMKK_TWRКалининград-Вышка127.2



Спутниковое изображение